createdAt,value
2022-09-20T00:03:40.143Z,13.7
2022-09-20T00:18:49.973Z,5.9
2022-09-20T00:33:59.501Z,7.5
2022-09-20T00:49:09.151Z,15.5
2022-09-20T01:04:18.768Z,6.4
2022-09-20T01:19:28.450Z,11.4
2022-09-20T01:34:38.369Z,8.1
2022-09-20T01:49:47.910Z,6.5
2022-09-20T02:04:57.092Z,4.2
2022-09-20T02:20:06.366Z,6.6
2022-09-20T02:35:15.792Z,7.2
2022-09-20T02:50:24.748Z,9.6
2022-09-20T03:05:33.942Z,13.8
2022-09-20T03:20:43.295Z,8.2
2022-09-20T03:35:52.732Z,11.4
2022-09-20T03:51:02.362Z,8
2022-09-20T04:06:11.605Z,14.8
2022-09-20T04:21:20.858Z,11.5
2022-09-20T04:36:29.982Z,15.3
2022-09-20T04:51:39.532Z,12.5
2022-09-20T05:06:49.002Z,13
2022-09-20T05:21:58.551Z,14.3
2022-09-20T05:37:07.910Z,10.6
2022-09-20T05:52:17.383Z,16.1
2022-09-20T06:07:27.196Z,19.9
2022-09-20T06:22:36.778Z,17.1
2022-09-20T06:37:46.149Z,14.3
2022-09-20T06:52:55.580Z,17.4
2022-09-20T07:08:05.233Z,16.5
2022-09-20T07:23:14.717Z,20.4
2022-09-20T07:38:24.773Z,13.9
2022-09-20T07:53:34.900Z,8.6
2022-09-20T08:08:44.431Z,7.2
2022-09-20T08:23:54.213Z,7.9
2022-09-20T08:40:04.152Z,10
2022-09-20T08:55:14.926Z,8.7
2022-09-20T09:10:25.241Z,7.3
2022-09-20T09:25:35.235Z,6.9
2022-09-20T09:40:45.628Z,6.8
2022-09-20T09:55:55.279Z,8.2
2022-09-20T10:11:05.098Z,8
2022-09-20T10:26:14.928Z,7.4
2022-09-20T10:41:25.420Z,4.4
2022-09-20T10:56:35.555Z,5.7
2022-09-20T11:11:44.653Z,6.8
2022-09-20T11:26:54.523Z,5.7
2022-09-20T11:42:04.234Z,3.9
2022-09-20T11:57:13.790Z,5.6
2022-09-20T12:12:24.751Z,4.9
2022-09-20T12:27:35.028Z,6.3
2022-09-20T12:42:44.592Z,5.2
2022-09-20T12:57:54.838Z,4.6
2022-09-20T13:13:03.012Z,3.7
2022-09-20T13:28:11.911Z,4.2
2022-09-20T13:43:25.345Z,2.9
2022-09-20T13:58:35.361Z,3.5
2022-09-20T14:13:44.707Z,3.7
2022-09-20T14:28:54.420Z,3
2022-09-20T14:44:04.091Z,1.7
2022-09-20T14:59:13.689Z,2
2022-09-20T15:14:23.637Z,3.5
2022-09-20T15:29:33.667Z,2
2022-09-20T15:44:43.089Z,1.2
2022-09-20T15:59:52.567Z,2.2
2022-09-20T16:15:01.588Z,3.4
2022-09-20T16:30:11.251Z,4.5
2022-09-20T16:45:20.266Z,3.2
2022-09-20T17:00:29.808Z,4.6
2022-09-20T17:15:38.944Z,4.9
2022-09-20T17:30:47.926Z,6.5
2022-09-20T17:45:57.406Z,7.7
2022-09-20T18:01:13.220Z,5.2
2022-09-20T18:16:23.048Z,4.8
2022-09-20T18:31:33.047Z,5.7
2022-09-20T18:46:42.416Z,7.8
2022-09-20T19:01:53.347Z,4.4
2022-09-20T19:17:04.366Z,4.2
2022-09-20T19:32:13.580Z,9
2022-09-20T19:47:23.036Z,7.3
2022-09-20T20:02:32.532Z,4.6
2022-09-20T20:17:41.845Z,4.4
2022-09-20T20:32:51.043Z,4.1
2022-09-20T20:48:00.289Z,4.5
2022-09-20T21:03:09.498Z,8.5
2022-09-20T21:18:19.356Z,4.1
2022-09-20T21:33:28.947Z,3.7
2022-09-20T21:48:38.540Z,5
2022-09-20T22:03:48.217Z,5.8
2022-09-20T22:18:57.666Z,4.1
2022-09-20T22:37:36.529Z,8.6
2022-09-20T22:52:47.613Z,5.3
2022-09-20T23:07:56.610Z,8
2022-09-20T23:23:05.876Z,8.4
2022-09-20T23:38:15.040Z,7.5
2022-09-20T23:53:24.686Z,6
